createdAt,value
2023-01-24T00:05:16.768Z,17.20
2023-01-24T00:15:20.622Z,17.90
2023-01-24T00:25:26.488Z,18.40
2023-01-24T00:35:30.121Z,18.30
2023-01-24T00:45:38.051Z,19.30
2023-01-24T00:55:43.944Z,18.80
2023-01-24T01:05:49.039Z,19.50
2023-01-24T01:15:52.876Z,18.50
2023-01-24T01:26:01.325Z,19.90
2023-01-24T01:36:05.678Z,19.50
2023-01-24T01:46:21.606Z,18.50
2023-01-24T01:56:37.321Z,17.70
2023-01-24T02:06:53.538Z,18.20
2023-01-24T02:16:57.720Z,17.70
2023-01-24T02:27:01.548Z,19.00
2023-01-24T02:37:11.492Z,19.70
2023-01-24T02:47:15.084Z,19.20
2023-01-24T02:57:37.411Z,19.00
2023-01-24T03:07:46.462Z,19.60
2023-01-24T03:18:12.565Z,20.40
2023-01-24T03:28:36.765Z,20.70
2023-01-24T03:38:59.557Z,20.60
2023-01-24T03:49:04.228Z,21.60
2023-01-24T03:59:10.999Z,28.00
2023-01-24T04:09:15.693Z,25.00
2023-01-24T04:19:21.260Z,22.10
2023-01-24T04:29:24.917Z,23.60
2023-01-24T04:39:31.415Z,20.90
2023-01-24T04:49:43.012Z,21.40
2023-01-24T04:59:50.015Z,21.50
2023-01-24T05:09:55.236Z,21.10
2023-01-24T05:19:59.993Z,23.10
2023-01-24T05:30:06.700Z,23.90
2023-01-24T05:40:11.271Z,21.90
2023-01-24T05:50:16.263Z,21.20
2023-01-24T06:00:20.890Z,28.10
2023-01-24T06:10:46.699Z,21.40
2023-01-24T06:20:51.162Z,22.00
2023-01-24T06:31:06.494Z,20.60
2023-01-24T06:41:18.105Z,18.90
2023-01-24T06:51:24.419Z,19.50
2023-01-24T07:01:29.888Z,19.70
2023-01-24T07:11:35.712Z,22.00
2023-01-24T07:21:41.110Z,21.50
2023-01-24T07:31:46.682Z,20.60
2023-01-24T07:41:53.454Z,21.40
2023-01-24T07:51:57.309Z,22.60
2023-01-24T08:02:01.057Z,22.20
2023-01-24T08:12:04.767Z,23.70
2023-01-24T08:22:10.406Z,24.30
2023-01-24T08:32:15.377Z,22.00
2023-01-24T08:42:21.965Z,22.00
2023-01-24T08:52:27.555Z,20.90
2023-01-24T09:02:33.638Z,18.80
2023-01-24T09:12:39.332Z,16.30
2023-01-24T09:22:42.963Z,15.50
2023-01-24T09:32:48.401Z,15.20
2023-01-24T09:43:14.370Z,17.30
2023-01-24T09:53:25.888Z,17.80
2023-01-24T10:03:33.542Z,17.50
2023-01-24T10:13:52.633Z,16.50
2023-01-24T10:24:01.611Z,17.70
2023-01-24T10:34:35.392Z,18.10
2023-01-24T10:44:43.463Z,18.20
2023-01-24T10:54:54.391Z,15.70
2023-01-24T11:05:04.675Z,15.80
2023-01-24T11:15:18.747Z,16.10
2023-01-24T11:25:26.459Z,16.70
2023-01-24T11:35:58.497Z,17.00
2023-01-24T11:46:34.709Z,17.70
2023-01-24T11:56:47.138Z,13.70
2023-01-24T12:07:13.447Z,10.10
2023-01-24T12:17:35.560Z,11.60
2023-01-24T12:27:43.671Z,10.20
2023-01-24T12:38:12.590Z,8.40
2023-01-24T12:48:21.469Z,8.00
2023-01-24T12:58:34.590Z,10.70
2023-01-24T13:09:11.788Z,12.00
2023-01-24T13:19:52.756Z,13.60
2023-01-24T13:30:43.195Z,10.90
2023-01-24T13:41:08.820Z,10.50
2023-01-24T13:51:20.611Z,11.60
2023-01-24T14:01:25.187Z,11.70
2023-01-24T14:11:41.226Z,10.90
2023-01-24T14:22:06.295Z,11.00
2023-01-24T14:32:37.688Z,9.60
2023-01-24T14:42:41.324Z,10.10
2023-01-24T14:52:46.518Z,11.00
2023-01-24T15:03:00.808Z,12.00
2023-01-24T15:13:09.410Z,10.80
2023-01-24T15:23:21.998Z,11.50
2023-01-24T15:33:40.728Z,10.70
2023-01-24T15:44:07.822Z,11.60
2023-01-24T15:54:13.471Z,10.70
2023-01-24T16:04:19.600Z,11.20
2023-01-24T16:14:27.232Z,10.50
2023-01-24T16:24:32.309Z,11.10
2023-01-24T16:34:37.036Z,14.40
2023-01-24T16:44:40.721Z,11.20
2023-01-24T16:54:47.511Z,11.80
2023-01-24T17:04:51.446Z,12.80
2023-01-24T17:14:55.313Z,13.60
2023-01-24T17:24:59.583Z,12.20
2023-01-24T17:35:05.856Z,13.20
2023-01-24T17:45:09.719Z,12.40
2023-01-24T17:55:13.319Z,12.90
2023-01-24T18:05:17.046Z,12.70
2023-01-24T18:15:20.721Z,12.60
2023-01-24T18:25:24.467Z,13.30
2023-01-24T18:35:28.109Z,11.90
2023-01-24T18:45:32.086Z,12.40
2023-01-24T18:55:36.222Z,12.70
2023-01-24T19:05:44.761Z,12.70
2023-01-24T19:15:48.426Z,12.40
2023-01-24T19:25:52.294Z,12.40
2023-01-24T19:35:57.292Z,12.30
2023-01-24T19:46:10.443Z,13.40
2023-01-24T19:56:18.844Z,14.10
2023-01-24T20:06:23.038Z,14.60
2023-01-24T20:16:31.731Z,15.40
2023-01-24T20:26:36.868Z,17.90
2023-01-24T20:36:43.474Z,17.50
2023-01-24T20:46:46.978Z,18.80
2023-01-24T20:56:54.862Z,19.20
2023-01-24T21:06:58.573Z,20.10
2023-01-24T21:17:02.233Z,19.60
2023-01-24T21:27:06.043Z,16.40
2023-01-24T21:37:16.480Z,15.40
2023-01-24T21:47:26.589Z,18.40
2023-01-24T21:57:48.816Z,22.50
2023-01-24T22:07:53.034Z,20.90
2023-01-24T22:17:56.843Z,22.60
2023-01-24T22:28:01.565Z,21.30
2023-01-24T22:38:05.334Z,20.70
2023-01-24T22:48:16.534Z,23.20
2023-01-24T22:58:20.210Z,22.40
2023-01-24T23:08:24.455Z,21.00
2023-01-24T23:18:47.300Z,21.50
2023-01-24T23:29:05.177Z,22.10
2023-01-24T23:39:10.308Z,23.10
2023-01-24T23:49:13.933Z,22.60
2023-01-24T23:59:17.478Z,23.70
